Time;durP1;ratioP1;P1;durP2;ratioP2;P2;SDS_P1;SDS_P2;PMS_P1;PMS_P2;Temp;Humidity;BMP_temperature;BMP_pressure;BME280_temperature;BME280_humidity;BME280_pressure;Samples;Min_cycle;Max_cycle;Signal;HPM_P1;HPM_P2
2022/01/08 10:17:45;;;;;;;68.43;31.75;;;;;;;12.26;96.25;98926.00;5051345;27;68106;-82
2022/01/08 10:20:10;;;;;;;;;;;;;;;12.84;90.67;98929.91;5078149;28;20068;-91
2022/01/08 10:22:35;;;;;;;44.03;26.77;;;;;;;12.30;92.60;98922.09;5066136;28;20014;-92
2022/01/08 10:25:11;;;;;;;28.85;19.80;;;;;;;12.87;86.82;98903.25;5063416;28;20046;-94
2022/01/08 10:27:36;;;;;;;29.02;19.15;;;;;;;12.40;90.29;98914.09;5061790;28;20113;-91
2022/01/08 10:30:02;;;;;;;;;;;;;;;12.00;95.18;98897.81;5065818;28;20529;-91
2022/01/08 10:32:27;;;;;;;59.97;29.08;;;;;;;12.03;92.88;98875.66;5054822;28;21961;-93
2022/01/08 10:34:53;;;;;;;3.28;2.92;;;;;;;12.37;92.08;98880.22;5057243;28;20037;-93
2022/01/08 10:37:18;;;;;;;;;;;;;;;12.53;90.07;98882.97;5064188;28;20025;-92
2022/01/08 10:39:52;;;;;;;;;;;;;;;12.34;91.36;98873.44;5065644;28;19924;-92
2022/01/08 10:42:19;;;;;;;;;;;;;;;12.60;89.89;98862.94;5062205;28;19913;-96
2022/01/08 10:44:48;;;;;;;;;;;;;;;12.69;89.30;98854.09;5048968;28;19920;-92
2022/01/08 10:47:18;;;;;;;;;;;;;;;12.69;88.89;98854.09;5063648;28;19916;-93
2022/01/08 10:49:43;;;;;;;;;;;;;;;12.94;86.02;98841.06;5060359;28;19916;-94
2022/01/08 10:52:12;;;;;;;;;;;;;;;12.30;91.04;98825.56;5055741;28;19917;-93
2022/01/08 10:54:41;;;;;;;;;;;;;;;12.38;91.08;98822.16;5063947;28;19952;-94
2022/01/08 10:57:08;;;;;;;;;;;;;;;12.35;90.68;98797.94;5063922;28;20007;-94
2022/01/08 10:59:34;;;;;;;;;;;;;;;12.45;90.54;98798.66;5065333;28;20371;-92
2022/01/08 11:02:00;;;;;;;;;;;;;;;12.25;91.66;98772.56;5071372;28;19917;-92
2022/01/08 11:04:36;;;;;;;;;;;;;;;12.69;88.28;98748.75;5070813;28;19924;-91
2022/01/08 11:07:18;;;;;;;;;;;;;;;12.52;89.29;98749.69;5068691;28;19967;-91
2022/01/08 11:09:45;;;;;;;;;;;;;;;12.53;89.78;98750.50;5065045;28;20329;-92
2022/01/08 11:12:13;;;;;;;;;;;;;;;12.21;93.21;98742.28;5064405;28;20031;-92
2022/01/08 11:17:13;;;;;;;;;;;;;;;12.59;91.29;98719.09;5056969;28;19947;-92
2022/01/08 11:19:40;;;;;;;;;;;;;;;12.56;91.15;98721.22;5064434;28;19928;-91
2022/01/08 11:22:07;;;;;;;;;;;;;;;12.86;87.25;98709.31;5060048;28;19921;-88
2022/01/08 11:24:33;;;;;;;31.13;23.50;;;;;;;12.75;89.14;98689.38;5060210;28;19921;-91
2022/01/08 11:26:59;;;;;;;35.00;24.70;;;;;;;12.78;87.58;98675.06;5066263;28;20071;-90
2022/01/08 11:29:27;;;;;;;5.30;4.65;;;;;;;12.76;88.59;98680.50;5057931;28;20115;-90
2022/01/08 11:31:54;;;;;;;;;;;;;;;12.69;90.44;98663.66;5042836;28;20107;-90
2022/01/08 11:34:22;;;;;;;;;;;;;;;12.63;90.87;98665.13;5046469;28;19963;-89
2022/01/08 11:36:49;;;;;;;;;;;;;;;12.39;91.77;98662.44;5045489;28;20003;-90
2022/01/08 11:39:15;;;;;;;;;;;;;;;12.56;91.92;98652.75;5040205;28;19917;-91
2022/01/08 11:41:40;;;;;;;;;;;;;;;12.92;89.36;98650.72;5050653;28;19913;-91
2022/01/08 11:44:06;;;;;;;;;;;;;;;13.12;86.66;98647.78;5051719;28;20317;-90
2022/01/08 11:46:34;;;;;;;;;;;;;;;13.08;88.34;98642.84;5033805;28;20003;-89
2022/01/08 11:49:00;;;;;;;;;;;;;;;13.07;88.41;98643.00;5045911;28;19913;-92
2022/01/08 11:51:27;;;;;;;35.72;25.45;;;;;;;13.09;87.54;98644.50;5043887;28;20542;-90
2022/01/08 11:53:57;;;;;;;;;;;;;;;13.28;86.96;98642.53;5046864;28;20029;-91
2022/01/08 11:56:30;;;;;;;;;;;;;;;13.62;84.52;98636.25;5045830;28;19917;-88
2022/01/08 11:59:03;;;;;;;;;;;;;;;13.02;87.66;98629.50;5046509;28;19982;-91
2022/01/08 12:01:28;;;;;;;;;;;;;;;13.03;87.46;98626.72;5048471;28;19920;-90
2022/01/08 12:03:55;;;;;;;;;;;;;;;13.38;86.71;98611.56;5042115;28;19916;-90
2022/01/08 12:06:26;;;;;;;;;;;;;;;13.48;84.93;98599.03;5042896;28;19928;-89
2022/01/08 12:11:46;;;;;;;;;;;;;;;13.37;84.94;98583.56;5041740;28;20021;-88
2022/01/08 12:14:19;;;;;;;;;;;;;;;13.51;84.17;98575.94;5047140;28;19978;-88
2022/01/08 12:16:48;;;;;;;;;;;;;;;12.90;87.65;98563.97;5041054;28;20286;-88
2022/01/08 12:19:29;;;;;;;;;;;;;;;13.24;86.57;98575.31;5048609;28;19971;-89
2022/01/08 12:21:54;;;;;;;;;;;;;;;13.17;86.77;98561.16;5047989;28;19912;-90
2022/01/08 12:24:26;;;;;;;;;;;;;;;13.55;88.12;98564.09;5052436;28;19919;-89
2022/01/08 12:26:51;;;;;;;;;;;;;;;14.32;83.91;98545.81;5052306;28;19908;-88
2022/01/08 12:29:35;;;;;;;;;;;;;;;13.78;84.28;98549.19;5052153;28;19924;-89
2022/01/08 12:32:19;;;;;;;;;;;;;;;13.98;83.63;98531.16;5063093;28;19916;-89
2022/01/08 12:34:48;;;;;;;;;;;;;;;14.33;80.22;98536.06;5070315;28;19980;-89
2022/01/08 12:37:14;;;;;;;;;;;;;;;14.28;79.51;98532.16;5065849;28;20011;-88
2022/01/08 12:39:42;;;;;;;;;;;;;;;13.92;81.95;98523.09;5070578;28;19955;-88
2022/01/08 12:42:19;;;;;;;;;;;;;;;13.70;83.02;98514.94;5080244;28;19920;-88
2022/01/08 12:44:57;;;;;;;;;;;;;;;14.25;80.50;98502.63;5067932;28;20019;-88
2022/01/08 12:47:38;;;;;;;;;;;;;;;14.13;80.78;98490.81;5072106;28;19925;-88
2022/01/08 12:50:17;;;;;;;;;;;;;;;13.91;80.86;98497.72;5064882;28;19916;-89
2022/01/08 12:53:04;;;;;;;22.80;20.38;;;;;;;13.71;81.52;98487.56;5066037;28;20434;-87
2022/01/08 12:55:34;;;;;;;;;;;;;;;13.84;80.37;98479.94;5064974;28;20031;-88
2022/01/08 12:57:59;;;;;;;;;;;;;;;13.73;81.64;98471.59;5072441;28;19952;-86
2022/01/08 13:00:25;;;;;;;0.60;0.60;;;;;;;14.16;78.98;98467.56;5066600;28;20444;-89
2022/01/08 13:02:51;;;;;;;;;;;;;;;14.05;78.15;98473.22;5069386;28;20327;-88
2022/01/08 13:05:16;;;;;;;;;;;;;;;14.20;77.23;98465.38;5072076;28;19920;-88
2022/01/08 13:07:52;;;;;;;22.52;20.15;;;;;;;13.75;78.88;98462.50;5064097;28;20428;-88
2022/01/08 13:10:18;;;;;;;;;;;;;;;13.60;79.58;98482.66;5048395;28;20033;-88
2022/01/08 13:12:57;;;;;;;;;;;;;;;13.64;78.74;98473.41;5035103;28;20028;-88
2022/01/08 13:15:27;;;;;;;;;;;;;;;13.45;78.58;98491.28;5038372;28;19917;-88
2022/01/08 13:17:53;;;;;;;;;;;;;;;13.64;77.78;98476.06;5048971;28;19924;-89
2022/01/08 13:20:18;;;;;;;;;;;;;;;13.51;78.32;98471.34;5052674;28;19917;-89
2022/01/08 13:22:47;;;;;;;;;;;;;;;12.94;80.93;98455.66;5044434;28;19917;-86
2022/01/08 13:25:12;;;;;;;;;;;;;;;12.99;81.26;98448.03;5046709;28;20405;-87
2022/01/08 13:27:38;;;;;;;;;;;;;;;12.68;83.23;98438.22;5045181;28;19944;-88
2022/01/08 13:30:04;;;;;;;;;;;;;;;13.35;79.56;98431.84;5047826;28;20382;-87
2022/01/08 13:32:29;;;;;;;;;;;;;;;13.14;79.99;98419.22;5043750;28;19923;-88
2022/01/08 13:34:59;;;;;;;;;;;;;;;12.93;81.00;98428.47;5046699;28;19948;-88
2022/01/08 13:37:26;;;;;;;;;;;;;;;12.82;81.49;98426.19;5051849;28;20305;-88
2022/01/08 13:39:54;;;;;;;;;;;;;;;12.74;82.06;98419.13;5046435;28;19916;-88
2022/01/08 13:42:20;;;;;;;;;;;;;;;12.93;80.63;98412.66;5063229;28;19962;-89
2022/01/08 13:44:45;;;;;;;;;;;;;;;12.77;81.06;98410.88;5058524;28;19920;-87
2022/01/08 13:47:40;;;;;;;;;;;;;;;12.73;81.22;98403.47;5043567;28;19939;-89
2022/01/08 13:50:05;;;;;;;;;;;;;;;13.38;77.37;98395.41;5028584;28;19925;-89
2022/01/08 13:52:37;;;;;;;;;;;;;;;13.28;77.33;98390.31;5036760;28;20440;-89
2022/01/08 13:55:23;;;;;;;;;;;;;;;13.14;77.40;98379.69;5043580;28;19924;-90
2022/01/08 13:57:53;;;;;;;;;;;;;;;13.07;77.61;98398.81;5043725;28;19916;-88
2022/01/08 14:00:21;;;;;;;;;;;;;;;13.17;76.79;98403.03;5041038;28;19916;-89
2022/01/08 14:02:51;;;;;;;;;;;;;;;12.79;78.74;98392.28;5052760;28;19912;-88
2022/01/08 14:05:17;;;;;;;;;;;;;;;13.06;78.67;98385.78;5052377;28;19913;-88
2022/01/08 14:07:42;;;;;;;;;;;;;;;12.60;79.81;98391.66;5036382;28;19936;-89
2022/01/08 14:10:09;;;;;;;;;;;;;;;12.83;78.88;98385.69;5038056;28;19921;-88
2022/01/08 14:12:34;;;;;;;;;;;;;;;13.14;76.72;98387.59;5049673;28;19917;-89
2022/01/08 14:15:04;;;;;;;;;;;;;;;13.50;74.60;98387.94;5048701;28;19920;-88
2022/01/08 14:17:30;;;;;;;;;;;;;;;13.55;74.58;98376.91;5049193;28;19923;-89
2022/01/08 14:19:59;;;;;;;;;;;;;;;13.49;74.72;98379.22;5041108;28;19991;-89
2022/01/08 14:22:24;;;;;;;;;;;;;;;13.24;75.16;98373.19;5042945;28;20342;-89
2022/01/08 14:24:51;;;;;;;;;;;;;;;13.37;73.94;98382.41;5045513;28;19917;-90
2022/01/08 14:27:18;;;;;;;;;;;;;;;13.31;74.75;98375.19;5046842;28;20013;-89
2022/01/08 14:29:43;;;;;;;;;;;;;;;13.19;74.69;98370.28;5048074;28;19923;-90
2022/01/08 14:32:09;;;;;;;;;;;;;;;12.81;76.93;98371.88;5051249;28;19913;-89
2022/01/08 14:34:51;;;;;;;;;;;;;;;13.23;75.23;98363.66;5051606;28;19912;-89
2022/01/08 14:37:33;;;;;;;;;;;;;;;13.36;74.31;98362.31;5050606;28;19963;-89
2022/01/08 14:40:17;;;;;;;;;;;;;;;13.07;74.98;98366.34;5049141;28;19919;-89
2022/01/08 14:42:42;;;;;;;;;;;;;;;13.35;74.37;98369.41;5040951;28;20029;-88
2022/01/08 14:45:08;;;;;;;;;;;;;;;13.25;74.78;98361.69;5045580;28;19967;-88
2022/01/08 14:47:38;;;;;;;;;;;;;;;13.14;75.24;98362.06;5047095;28;20268;-89
2022/01/08 14:50:11;;;;;;;;;;;;;;;13.38;73.93;98371.69;5043214;28;19923;-88
2022/01/08 14:52:38;;;;;;;;;;;;;;;13.15;74.53;98374.25;5050456;28;19916;-88
2022/01/08 14:55:04;;;;;;;;;;;;;;;12.78;76.46;98361.69;5043408;28;19944;-90
2022/01/08 14:57:29;;;;;;;;;;;;;;;12.50;78.30;98354.97;5050682;28;20567;-90
2022/01/08 14:59:55;;;;;;;;;;;;;;;12.58;78.49;98369.94;5059439;28;19924;-87
2022/01/08 15:02:20;;;;;;;;;;;;;;;12.17;79.57;98363.88;5065665;28;19916;-87
2022/01/08 15:04:46;;;;;;;;;;;;;;;12.16;80.64;98357.78;5063774;28;19916;-92
2022/01/08 15:07:11;;;;;;;;;;;;;;;12.33;80.22;98365.69;5045909;28;19963;-90
2022/01/08 15:09:37;;;;;;;;;;;;;;;12.30;79.76;98358.94;5054771;28;20293;-89
2022/01/08 15:12:02;;;;;;;;;;;;;;;12.17;80.57;98361.25;5056091;28;19917;-90
2022/01/08 15:14:27;;;;;;;;;;;;;;;12.17;81.24;98353.38;5056489;28;19956;-91
2022/01/08 15:16:53;;;;;;;;;;;;;;;12.22;80.87;98354.53;5055129;28;19924;-88
2022/01/08 15:19:18;;;;;;;;;;;;;;;12.45;78.49;98357.28;5057432;28;19909;-89
2022/01/08 15:21:43;;;;;;;;;;;;;;;12.56;78.38;98358.75;5039259;28;19928;-90
2022/01/08 15:24:08;;;;;;;;;;;;;;;12.31;78.46;98350.06;5049678;28;20290;-86
2022/01/08 15:26:34;;;;;;;;;;;;;;;12.80;77.53;98346.53;5050442;28;19916;-88
2022/01/08 15:28:59;;;;;;;;;;;;;;;12.92;76.97;98353.06;5056789;28;19989;-87
2022/01/08 15:31:24;;;;;;;;;;;;;;;12.56;77.03;98350.88;5058791;28;19956;-87
2022/01/08 15:33:50;;;;;;;;;;;;;;;12.63;76.89;98364.16;5038924;28;19917;-88
2022/01/08 15:36:15;;;;;;;;;;;;;;;12.54;77.27;98366.00;5044400;28;20318;-86
2022/01/08 15:38:40;;;;;;;;;;;;;;;12.10;80.55;98363.72;5051416;28;19917;-87
2022/01/08 15:41:06;;;;;;;;;;;;;;;12.12;80.55;98364.38;5040167;28;20349;-87
2022/01/08 15:43:31;;;;;;;;;;;;;;;11.84;80.24;98369.91;5048212;28;20430;-86
2022/01/08 15:45:57;;;;;;;0.40;0.40;;;;;;;11.90;81.40;98369.28;5041566;28;20445;-87
2022/01/08 15:48:22;;;;;;;;;;;;;;;11.92;79.15;98376.19;5034358;28;20033;-92
2022/01/08 15:50:48;;;;;;;;;;;;;;;12.02;78.34;98375.03;5047280;28;19974;-91
2022/01/08 15:53:13;;;;;;;;;;;;;;;12.03;77.92;98378.53;5054214;28;20375;-91
2022/01/08 15:55:38;;;;;;;;;;;;;;;11.62;77.59;98360.81;5055381;28;20007;-91
2022/01/08 15:58:03;;;;;;;;;;;;;;;11.89;77.08;98341.34;5048710;28;19946;-91
2022/01/08 16:00:29;;;;;;;;;;;;;;;11.75;77.06;98343.75;5055819;28;19909;-90
2022/01/08 16:02:54;;;;;;;;;;;;;;;11.94;77.32;98345.28;5036063;28;20401;-89
2022/01/08 16:05:22;;;;;;;;;;;;;;;11.83;77.20;98341.97;5039996;28;19917;-92
2022/01/08 16:07:47;;;;;;;;;;;;;;;11.86;77.32;98372.38;5042589;28;19917;-90
2022/01/08 16:10:13;;;;;;;;;;;;;;;11.85;76.43;98389.16;5035442;28;20327;-93
2022/01/08 16:12:38;;;;;;;;;;;;;;;11.08;76.50;98403.16;5044428;28;19978;-90
2022/01/08 16:15:04;;;;;;;;;;;;;;;11.19;75.12;98407.31;5057072;28;19913;-89
2022/01/08 16:17:29;;;;;;;;;;;;;;;11.52;72.54;98415.34;5049718;28;19917;-93
2022/01/08 16:19:54;;;;;;;;;;;;;;;11.51;72.39;98427.66;5052018;28;20024;-90
2022/01/08 16:22:20;;;;;;;;;;;;;;;11.18;73.72;98418.00;5056776;28;20112;-90
2022/01/08 16:24:45;;;;;;;;;;;;;;;10.68;75.17;98424.75;5035465;28;19959;-88
2022/01/08 16:27:10;;;;;;;;;;;;;;;10.74;75.17;98411.00;5044388;28;19917;-89
2022/01/08 16:29:35;;;;;;;;;;;;;;;10.65;75.05;98419.81;5053326;28;19916;-89
2022/01/08 16:32:01;;;;;;;;;;;;;;;10.99;74.13;98421.66;5068655;28;19962;-88
2022/01/08 16:34:26;;;;;;;;;;;;;;;11.15;72.72;98426.19;5074475;28;20374;-88
2022/01/08 16:36:51;;;;;;;;;;;;;;;11.22;72.29;98424.59;5058854;28;19956;-90
2022/01/08 16:39:17;;;;;;;;;;;;;;;11.14;72.35;98435.03;5054283;28;19917;-89
2022/01/08 16:41:43;;;;;;;;;;;;;;;10.69;73.33;98437.72;5041628;28;19916;-90
2022/01/08 16:44:08;;;;;;;31.00;17.65;;;;;;;10.65;73.04;98440.81;5034278;28;19991;-91
2022/01/08 16:46:38;;;;;;;;;;;;;;;10.62;74.17;98447.16;5044744;28;20460;-88
2022/01/08 16:49:03;;;;;;;;;;;;;;;10.77;72.07;98441.38;5048823;28;20304;-92
2022/01/08 16:51:29;;;;;;;;;;;;;;;10.85;71.79;98441.44;5050540;28;19947;-90
2022/01/08 16:53:54;;;;;;;;;;;;;;;10.53;71.71;98448.09;5048887;28;19943;-93
2022/01/08 16:56:19;;;;;;;;;;;;;;;10.64;72.45;98454.91;5039528;28;19961;-96
2022/01/08 16:58:44;;;;;;;;;;;;;;;10.52;72.83;98468.28;5053573;28;19951;-91
2022/01/08 17:01:10;;;;;;;;;;;;;;;10.46;72.63;98473.28;5045657;28;19945;-91
2022/01/08 17:03:35;;;;;;;;;;;;;;;10.45;73.21;98476.91;5045390;28;20042;-94
2022/01/08 17:06:01;;;;;;;;;;;;;;;10.21;73.58;98477.44;5044736;28;19939;-96
2022/01/08 17:08:26;;;;;;;;;;;;;;;10.49;72.47;98486.13;5036584;28;19941;-93
2022/01/08 17:10:55;;;;;;;;;;;;;;;10.75;72.41;98498.47;5053165;28;19963;-94
2022/01/08 17:13:22;;;;;;;;;;;;;;;10.69;71.82;98492.84;5051983;28;19954;-91
2022/01/08 17:15:47;;;;;;;;;;;;;;;10.55;72.25;98506.50;5054621;28;19960;-93
2022/01/08 17:18:12;;;;;;;;;;;;;;;10.46;72.40;98502.16;5050127;28;19951;-92
2022/01/08 17:20:37;;;;;;;;;;;;;;;10.24;73.22;98506.81;5060643;28;19966;-92
2022/01/08 17:23:03;;;;;;;;;;;;;;;10.11;73.39;98496.72;5036554;28;20020;-92
2022/01/08 17:25:29;;;;;;;;;;;;;;;10.47;72.37;98503.81;5052889;28;19978;-91
2022/01/08 17:27:55;;;;;;;;;;;;;;;10.21;71.58;98507.13;5055921;28;19912;-91
2022/01/08 17:30:21;;;;;;;;;;;;;;;10.37;71.72;98518.78;5063154;28;20289;-92
2022/01/08 17:32:46;;;;;;;;;;;;;;;10.22;72.19;98521.88;5057366;28;19951;-93
2022/01/08 17:35:12;;;;;;;;;;;;;;;10.32;72.95;98520.03;5058315;28;20303;-93
2022/01/08 17:37:37;;;;;;;;;;;;;;;10.27;73.32;98526.72;5053584;28;20325;-92
2022/01/08 17:40:02;;;;;;;;;;;;;;;9.91;75.10;98532.72;5053029;28;19917;-89
2022/01/08 17:42:28;;;;;;;;;;;;;;;10.32;73.33;98535.78;5033020;28;19917;-95
2022/01/08 17:44:55;;;;;;;;;;;;;;;10.22;74.32;98540.25;5058302;28;19952;-94
2022/01/08 17:47:20;;;;;;;;;;;;;;;9.88;75.75;98546.09;5032347;28;19917;-93
2022/01/08 17:49:45;;;;;;;;;;;;;;;10.00;75.02;98562.47;5044320;28;19971;-91
2022/01/08 17:52:11;;;;;;;;;;;;;;;10.07;74.98;98570.56;5054923;28;19917;-91
2022/01/08 17:54:39;;;;;;;;;;;;;;;9.80;76.06;98571.41;5052137;28;19916;-88
2022/01/08 17:57:04;;;;;;;;;;;;;;;9.62;75.61;98581.81;5055668;28;19939;-91
2022/01/08 17:59:29;;;;;;;;;;;;;;;9.91;74.99;98584.28;5053330;28;20027;-92
2022/01/08 18:01:55;;;;;;;;;;;;;;;9.85;74.16;98571.78;5053046;28;19925;-93
2022/01/08 18:04:20;;;;;;;;;;;;;;;9.68;75.47;98589.91;5056065;28;20000;-89
2022/01/08 18:06:46;;;;;;;;;;;;;;;9.78;73.90;98584.63;5058429;28;19917;-88
2022/01/08 18:09:11;;;;;;;;;;;;;;;9.81;73.93;98591.38;5045322;28;20000;-88
2022/01/08 18:11:37;;;;;;;;;;;;;;;9.68;74.69;98594.34;5048565;28;19916;-89
2022/01/08 18:14:03;;;;;;;;;;;;;;;9.96;73.05;98597.81;5050305;28;19917;-87
2022/01/08 18:16:28;;;;;;;;;;;;;;;9.89;73.65;98597.56;5052370;28;20321;-87
2022/01/08 18:18:55;;;;;;;;;;;;;;;10.08;71.17;98596.63;5042125;28;19942;-87
2022/01/08 18:21:21;;;;;;;;;;;;;;;10.15;70.80;98607.41;5043572;28;19917;-87
2022/01/08 18:23:46;;;;;;;;;;;;;;;10.00;70.51;98621.94;5031341;28;19943;-87
2022/01/08 18:26:11;;;;;;;;;;;;;;;9.74;70.62;98617.34;5038275;28;19913;-92
2022/01/08 18:28:37;;;;;;;;;;;;;;;9.23;70.34;98623.78;5069281;28;19923;-87
2022/01/08 18:31:02;;;;;;;;;;;;;;;9.32;69.68;98620.31;5064998;28;19917;-87
2022/01/08 18:33:27;;;;;;;;;;;;;;;8.87;70.25;98632.19;5064299;28;19923;-87
2022/01/08 18:35:52;;;;;;;;;;;;;;;8.60;71.42;98630.22;5048660;28;19957;-87
2022/01/08 18:38:18;;;;;;;;;;;;;;;9.21;69.02;98641.44;5035210;28;20014;-87
2022/01/08 18:40:43;;;;;;;;;;;;;;;8.81;69.94;98652.88;5039260;28;19915;-86
2022/01/08 18:43:08;;;;;;;;;;;;;;;8.29;72.27;98655.59;5056189;28;19925;-87
2022/01/08 18:45:36;;;;;;;;;;;;;;;8.43;71.21;98662.25;5056700;28;19916;-86
2022/01/08 18:48:02;;;;;;;;;;;;;;;8.17;71.56;98675.75;5056173;28;19919;-86
2022/01/08 18:50:27;;;;;;;;;;;;;;;8.56;70.05;98665.47;5058563;28;19917;-86
2022/01/08 18:52:52;;;;;;;;;;;;;;;8.96;69.52;98684.69;5062491;28;19913;-86
2022/01/08 18:55:18;;;;;;;;;;;;;;;8.82;68.74;98675.44;5058413;28;19951;-86
2022/01/08 18:57:44;;;;;;;;;;;;;;;8.65;68.85;98685.59;5056028;28;19984;-87
2022/01/08 19:00:11;;;;;;;;;;;;;;;8.35;68.70;98681.19;5058505;28;19948;-87
2022/01/08 19:02:37;;;;;;;;;;;;;;;8.08;69.71;98697.47;5056256;28;19920;-85
2022/01/08 19:05:03;;;;;;;;;;;;;;;8.21;69.26;98702.47;5057229;28;19916;-85
2022/01/08 19:07:28;;;;;;;;;;;;;;;8.37;70.20;98707.22;5055444;28;19968;-87
2022/01/08 19:09:53;;;;;;;;;;;;;;;8.25;70.50;98701.25;5050332;28;19917;-86
2022/01/08 19:12:19;;;;;;;;;;;;;;;8.51;69.50;98696.41;5035222;28;19944;-88
2022/01/08 19:14:45;;;;;;;;;;;;;;;8.32;69.21;98695.38;5054660;28;19923;-86
2022/01/08 19:17:10;;;;;;;;;;;;;;;8.37;69.19;98700.19;5049220;28;19917;-88
2022/01/08 19:19:35;;;;;;;;;;;;;;;8.28;69.33;98701.81;5052738;28;20271;-87
2022/01/08 19:22:01;;;;;;;;;;;;;;;8.15;68.76;98703.81;5060206;28;20007;-86
2022/01/08 19:24:26;;;;;;;;;;;;;;;7.92;70.31;98718.88;5064903;28;19916;-86
2022/01/08 19:26:51;;;;;;;;;;;;;;;8.25;69.15;98716.94;5054893;28;19920;-88
2022/01/08 19:29:17;;;;;;;;;;;;;;;8.12;70.17;98709.34;5053629;28;19960;-88
2022/01/08 19:31:42;;;;;;;;;;;;;;;8.06;68.91;98713.28;5047486;28;19924;-87
2022/01/08 19:34:11;;;;;;;;;;;;;;;8.18;68.46;98716.66;5045741;28;20375;-87
2022/01/08 19:36:37;;;;;;;;;;;;;;;8.07;69.04;98728.00;5040453;28;19951;-89
2022/01/08 19:39:03;;;;;;;;;;;;;;;8.30;68.63;98735.69;5067298;28;20009;-87
2022/01/08 19:41:29;;;;;;;;;;;;;;;8.32;70.01;98750.28;5065919;28;19917;-88
2022/01/08 19:43:55;;;;;;;;;;;;;;;8.12;70.85;98751.16;5052675;28;20014;-86
2022/01/08 19:46:20;;;;;;;;;;;;;;;8.27;68.54;98749.88;5041624;28;19917;-86
2022/01/08 19:48:45;;;;;;;;;;;;;;;7.94;70.26;98754.34;5053804;28;19924;-86
2022/01/08 19:51:11;;;;;;;;;;;;;;;8.15;69.57;98763.97;5055421;28;19966;-86
2022/01/08 19:53:36;;;;;;;;;;;;;;;8.42;69.14;98752.16;5054823;28;19917;-87
2022/01/08 19:56:01;;;;;;;;;;;;;;;8.52;69.07;98742.56;5038282;28;19931;-86
2022/01/08 19:58:27;;;;;;;;;;;;;;;8.52;68.66;98745.19;5043595;28;19987;-85
2022/01/08 20:00:52;;;;;;;;;;;;;;;8.32;70.31;98742.44;5050219;28;19913;-86
2022/01/08 20:03:18;;;;;;;;;;;;;;;8.12;69.74;98743.31;5052918;28;19932;-87
2022/01/08 20:05:44;;;;;;;;;;;;;;;8.04;71.08;98743.13;5041793;28;20370;-84
2022/01/08 20:08:09;;;;;;;;;;;;;;;8.03;71.07;98741.47;5071488;28;19965;-87
2022/01/08 20:10:34;;;;;;;;;;;;;;;8.15;70.99;98748.28;5071052;28;19919;-86
2022/01/08 20:13:00;;;;;;;;;;;;;;;9.07;66.77;98732.50;5057185;28;20196;-87
2022/01/08 20:15:25;;;;;;;;;;;;;;;8.64;67.42;98744.13;5052231;28;19924;-88
2022/01/08 20:17:50;;;;;;;;;;;;;;;8.26;69.11;98753.44;5052732;28;19920;-85
2022/01/08 20:20:16;;;;;;;;;;;;;;;7.97;71.10;98755.88;5034716;28;20033;-86
2022/01/08 20:22:41;;;;;;;;;;;;;;;7.96;70.84;98751.63;5049589;28;19947;-84
2022/01/08 20:25:08;;;;;;;;;;;;;;;7.99;70.05;98755.75;5059189;28;19989;-86
2022/01/08 20:27:33;;;;;;;;;;;;;;;8.06;69.77;98759.53;5060030;28;19981;-86
2022/01/08 20:29:58;;;;;;;;;;;;;;;7.81;70.13;98758.13;5053165;28;20428;-86
2022/01/08 20:32:24;;;;;;;;;;;;;;;7.95;69.93;98761.22;5062037;28;20007;-85
2022/01/08 20:34:49;;;;;;;;;;;;;;;7.59;71.06;98753.84;5060167;28;19916;-85
2022/01/08 20:37:15;;;;;;;;;;;;;;;7.69;71.56;98765.19;5053796;28;20002;-87
2022/01/08 20:39:40;;;;;;;;;;;;;;;7.84;70.49;98771.75;5058310;28;20047;-86
2022/01/08 20:42:07;;;;;;;;;;;;;;;7.86;70.37;98771.59;5053996;28;19986;-86
2022/01/08 20:44:32;;;;;;;;;;;;;;;7.69;70.82;98770.41;5059654;28;19920;-86
2022/01/08 20:46:57;;;;;;;;;;;;;;;7.80;70.83;98778.19;5061642;28;19916;-86
2022/01/08 20:49:23;;;;;;;;;;;;;;;7.64;71.32;98778.63;5068967;28;19924;-86
2022/01/08 20:51:48;;;;;;;;;;;;;;;7.43;72.10;98786.41;5048875;28;20366;-86
2022/01/08 20:54:13;;;;;;;;;;;;;;;7.57;71.31;98794.91;5056262;28;19948;-85
2022/01/08 20:56:39;;;;;;;;;;;;;;;7.61;71.23;98801.56;5054521;28;19985;-86
2022/01/08 20:59:04;;;;;;;;;;;;;;;7.57;69.96;98807.97;5062386;28;20384;-86
2022/01/08 21:01:29;;;;;;;;;;;;;;;7.64;71.48;98814.34;5054240;28;19916;-86
2022/01/08 21:03:55;;;;;;;;;;;;;;;7.46;71.54;98812.25;5053888;28;19908;-86
2022/01/08 21:06:20;;;;;;;;;;;;;;;7.86;70.10;98808.19;5042429;28;20324;-86
2022/01/08 21:08:45;;;;;;;;;;;;;;;7.44;71.24;98798.50;5043365;28;19913;-87
2022/01/08 21:11:11;;;;;;;;;;;;;;;7.62;69.88;98816.25;5061823;28;19940;-88
2022/01/08 21:13:36;;;;;;;;;;;;;;;7.54;71.53;98798.59;5077327;28;19912;-86
2022/01/08 21:16:01;;;;;;;;;;;;;;;7.27;72.39;98806.88;5071250;28;19959;-87
2022/01/08 21:18:27;;;;;;;;;;;;;;;7.70;71.40;98803.41;5065267;28;19912;-86
2022/01/08 21:20:53;;;;;;;;;;;;;;;7.71;71.32;98807.69;5064560;28;19920;-86
2022/01/08 21:23:18;;;;;;;;;;;;;;;7.63;70.71;98802.25;5079811;28;19956;-86
2022/01/08 21:25:43;;;;;;;;;;;;;;;7.53;71.32;98796.94;5072260;28;19928;-86
2022/01/08 21:28:09;;;;;;;;;;;;;;;7.60;71.00;98797.28;5053137;28;19913;-86
2022/01/08 21:30:34;;;;;;;;;;;;;;;7.87;69.90;98808.06;5057231;28;19974;-88
2022/01/08 21:33:00;;;;;;;;;;;;;;;7.30;72.11;98806.63;5071334;28;19900;-89
2022/01/08 21:35:29;;;;;;;;;;;;;;;7.66;71.01;98807.22;5088375;28;19940;-87
2022/01/08 21:37:56;;;;;;;;;;;;;;;7.38;70.96;98804.22;5067693;28;19916;-87
2022/01/08 21:40:23;;;;;;;;;;;;;;;7.68;70.15;98802.69;5056485;28;20263;-85
2022/01/08 21:42:48;;;;;;;;;;;;;;;7.83;69.67;98806.66;5054021;28;19908;-84
2022/01/08 21:45:14;;;;;;;;;;;;;;;7.58;70.43;98807.00;5053986;28;19959;-86
2022/01/08 21:47:42;;;;;;;;;;;;;;;7.44;70.68;98814.16;5052385;28;20286;-88
2022/01/08 21:50:08;;;;;;;;;;;;;;;7.78;70.91;98819.31;5050747;28;19978;-84
2022/01/08 21:52:34;;;;;;;;;;;;;;;7.88;70.32;98817.59;5052732;28;19916;-88
2022/01/08 21:54:59;;;;;;;;;;;;;;;7.75;70.58;98819.53;5042187;28;19923;-88
2022/01/08 21:57:25;;;;;;;;;;;;;;;7.54;70.90;98809.88;5050737;28;19970;-89
2022/01/08 21:59:50;;;;;;;;;;;;;;;7.85;69.45;98823.06;5060990;28;19952;-88
2022/01/08 22:02:15;;;;;;;;;;;;;;;7.87;69.52;98826.38;5058773;28;20007;-88
2022/01/08 22:04:42;;;;;;;;;;;;;;;7.99;68.50;98818.47;5071772;28;19913;-88
2022/01/08 22:07:08;;;;;;;;;;;;;;;8.05;67.51;98816.19;5069162;28;19920;-88
2022/01/08 22:09:34;;;;;;;;;;;;;;;8.02;66.63;98813.00;5070616;28;19918;-88
2022/01/08 22:11:59;;;;;;;;;;;;;;;8.05;68.23;98817.97;5063823;28;20275;-87
2022/01/08 22:14:26;;;;;;;;;;;;;;;8.19;67.20;98819.44;5053091;28;20022;-88
2022/01/08 22:16:51;;;;;;;;;;;;;;;8.02;67.98;98823.47;5058589;28;19966;-88
2022/01/08 22:19:16;;;;;;;;;;;;;;;8.06;67.94;98810.00;5073077;28;19956;-88
2022/01/08 22:21:42;;;;;;;;;;;;;;;8.01;67.27;98812.16;5065380;28;20484;-88
2022/01/08 22:24:07;;;;;;;;;;;;;;;7.85;67.63;98817.00;5053954;28;19916;-88
2022/01/08 22:26:33;;;;;;;;;;;;;;;7.92;69.26;98816.38;5053070;28;19948;-88
2022/01/08 22:28:58;;;;;;;;;;;;;;;8.24;66.97;98822.50;5063725;28;19939;-88
2022/01/08 22:31:23;;;;;;;;;;;;;;;8.30;67.14;98811.53;5055092;28;19916;-89
2022/01/08 22:33:49;;;;;;;;;;;;;;;8.27;66.86;98812.63;5060337;28;19924;-88
2022/01/08 22:36:14;;;;;;;;;;;;;;;7.69;68.20;98806.97;5052593;28;19970;-88
2022/01/08 22:38:39;;;;;;;;;;;;;;;7.64;69.20;98819.56;5052678;28;19920;-88
2022/01/08 22:41:04;;;;;;;;;;;;;;;7.82;69.65;98805.03;5052279;28;19920;-88
2022/01/08 22:43:30;;;;;;;;;;;;;;;7.09;70.03;98815.22;5052309;28;19917;-89
2022/01/08 22:45:55;;;;;;;;;;;;;;;7.36;70.36;98816.56;5052875;28;19950;-87
2022/01/08 22:48:20;;;;;;;;;;;;;;;7.18;70.73;98825.88;5052368;28;19915;-88
2022/01/08 22:50:46;;;;;;;;;;;;;;;7.24;70.00;98828.00;5051048;28;20019;-87
2022/01/08 22:53:12;;;;;;;;;;;;;;;7.17;70.03;98842.47;5059562;28;20381;-88
2022/01/08 22:55:38;;;;;;;;;;;;;;;7.67;69.63;98833.22;5072245;28;20011;-87
2022/01/08 22:58:03;;;;;;;;;;;;;;;7.47;69.49;98824.38;5072243;28;19948;-88
2022/01/08 23:00:37;;;;;;;;;;;;;;;7.21;69.99;98826.47;5072184;28;19967;-87
2022/01/08 23:03:03;;;;;;;;;;;;;;;7.35;70.20;98830.59;5071423;28;19913;-88
2022/01/08 23:05:29;;;;;;;;;;;;;;;7.48;69.81;98831.25;5072241;28;20030;-87